createdAt,value
2023-12-19T00:01:20.768Z,-0.82
2023-12-19T00:03:47.472Z,-0.83
2023-12-19T00:06:14.104Z,-0.80
2023-12-19T00:08:40.445Z,-0.79
2023-12-19T00:11:07.293Z,-0.77
2023-12-19T00:13:33.760Z,-0.77
2023-12-19T00:16:00.324Z,-0.76
2023-12-19T00:18:26.923Z,-0.75
2023-12-19T00:20:53.373Z,-0.74
2023-12-19T00:23:19.859Z,-0.71
2023-12-19T00:25:47.227Z,-0.70
2023-12-19T00:28:13.543Z,-0.65
2023-12-19T00:30:40.174Z,-0.65
2023-12-19T00:33:06.797Z,-0.68
2023-12-19T00:35:33.354Z,-0.69
2023-12-19T00:37:59.679Z,-0.65
2023-12-19T00:40:26.046Z,-0.64
2023-12-19T00:42:52.441Z,-0.62
2023-12-19T00:45:18.857Z,-0.62
2023-12-19T00:47:45.545Z,-0.60
2023-12-19T00:50:11.926Z,-0.60
2023-12-19T00:52:38.302Z,-0.58
2023-12-19T00:55:05.170Z,-0.55
2023-12-19T00:57:32.640Z,-0.55
2023-12-19T00:59:59.011Z,-0.56
2023-12-19T01:02:25.382Z,-0.57
2023-12-19T01:04:51.852Z,-0.59
2023-12-19T01:07:18.266Z,-0.60
2023-12-19T01:09:44.705Z,-0.59
2023-12-19T01:12:11.088Z,-0.58
2023-12-19T01:14:37.421Z,-0.58
2023-12-19T01:17:03.884Z,-0.59
2023-12-19T01:19:30.473Z,-0.62
2023-12-19T01:21:56.890Z,-0.64
2023-12-19T01:24:23.320Z,-0.65
2023-12-19T01:26:49.735Z,-0.71
2023-12-19T01:29:16.748Z,-0.73
2023-12-19T01:31:43.340Z,-0.71
2023-12-19T01:34:10.542Z,-0.71
2023-12-19T01:36:39.581Z,-0.67
2023-12-19T01:39:06.000Z,-0.66
2023-12-19T01:41:32.397Z,-0.62
2023-12-19T01:44:02.302Z,-0.58
2023-12-19T01:46:29.133Z,-0.52
2023-12-19T01:48:55.826Z,-0.46
2023-12-19T01:51:22.367Z,-0.40
2023-12-19T01:53:49.549Z,-0.34
2023-12-19T01:56:18.420Z,-0.29
2023-12-19T01:58:45.746Z,-0.27
2023-12-19T02:01:13.567Z,-0.23
2023-12-19T02:03:42.449Z,-0.16
2023-12-19T02:06:11.919Z,-0.08
2023-12-19T02:08:38.257Z,-0.02
2023-12-19T02:11:05.121Z,-0.01
2023-12-19T02:13:31.653Z,0.01
2023-12-19T02:15:58.313Z,0.05
2023-12-19T02:18:24.863Z,0.04
2023-12-19T02:20:51.286Z,0.04
2023-12-19T02:23:17.772Z,0.03
2023-12-19T02:25:44.131Z,0.01
2023-12-19T02:28:10.632Z,0.01
2023-12-19T02:30:37.563Z,0.02
2023-12-19T02:33:05.458Z,0.04
2023-12-19T02:35:32.176Z,0.07
2023-12-19T02:37:58.574Z,0.13
2023-12-19T02:40:25.058Z,0.15
2023-12-19T02:42:51.522Z,0.15
2023-12-19T02:45:17.969Z,0.17
2023-12-19T02:47:44.418Z,0.22
2023-12-19T02:50:11.182Z,0.27
2023-12-19T02:52:37.489Z,0.27
2023-12-19T02:55:04.225Z,0.30
2023-12-19T02:57:30.717Z,0.32
2023-12-19T02:59:57.114Z,0.33
2023-12-19T03:02:23.534Z,0.31
2023-12-19T03:04:49.941Z,0.27
2023-12-19T03:07:16.560Z,0.20
2023-12-19T03:09:43.001Z,0.17
2023-12-19T03:12:09.529Z,0.19
2023-12-19T03:14:37.636Z,0.19
2023-12-19T03:17:06.540Z,0.17
2023-12-19T03:19:33.039Z,0.16
2023-12-19T03:21:59.551Z,0.17
2023-12-19T03:24:26.037Z,0.18
2023-12-19T03:26:52.423Z,0.20
2023-12-19T03:29:18.767Z,0.19
2023-12-19T03:31:45.161Z,0.14
2023-12-19T03:34:11.987Z,0.13
2023-12-19T03:36:38.760Z,0.16
2023-12-19T03:39:05.208Z,0.22
2023-12-19T03:41:31.673Z,0.24
2023-12-19T03:43:58.052Z,0.25
2023-12-19T03:46:24.498Z,0.21
2023-12-19T03:48:50.977Z,0.19
2023-12-19T03:51:17.476Z,0.20
2023-12-19T03:53:43.841Z,0.23
2023-12-19T03:56:10.249Z,0.26
2023-12-19T03:58:39.297Z,0.27
2023-12-19T04:01:05.774Z,0.19
2023-12-19T04:03:32.281Z,0.13
2023-12-19T04:05:58.709Z,0.05
2023-12-19T04:08:25.077Z,-0.04
2023-12-19T04:10:51.656Z,-0.07
2023-12-19T04:13:18.112Z,-0.08
2023-12-19T04:15:44.566Z,-0.05
2023-12-19T04:18:11.883Z,-0.06
2023-12-19T04:20:39.109Z,-0.13
2023-12-19T04:23:05.486Z,-0.19
2023-12-19T04:25:31.816Z,-0.20
2023-12-19T04:27:58.211Z,-0.20
2023-12-19T04:30:24.771Z,-0.26
2023-12-19T04:32:51.318Z,-0.30
2023-12-19T04:35:17.701Z,-0.33
2023-12-19T04:37:44.097Z,-0.37
2023-12-19T04:40:10.788Z,-0.43
2023-12-19T04:42:37.175Z,-0.49
2023-12-19T04:45:03.787Z,-0.51
2023-12-19T04:47:30.216Z,-0.52
2023-12-19T04:49:56.743Z,-0.59
2023-12-19T04:52:23.350Z,-0.63
2023-12-19T04:54:49.730Z,-0.67
2023-12-19T04:57:16.115Z,-0.74
2023-12-19T04:59:42.530Z,-0.77
2023-12-19T05:02:08.946Z,-0.81
2023-12-19T05:04:35.395Z,-0.84
2023-12-19T05:07:01.921Z,-0.85
2023-12-19T05:09:28.398Z,-0.84
2023-12-19T05:11:54.770Z,-0.83
2023-12-19T05:14:21.186Z,-0.78
2023-12-19T05:16:47.600Z,-0.74
2023-12-19T05:19:14.465Z,-0.72
2023-12-19T05:21:41.124Z,-0.73
2023-12-19T05:24:07.604Z,-0.75
2023-12-19T05:26:33.995Z,-0.74
2023-12-19T05:29:00.464Z,-0.73
2023-12-19T05:31:26.970Z,-0.71
2023-12-19T05:33:53.469Z,-0.71
2023-12-19T05:36:20.133Z,-0.71
2023-12-19T05:38:46.462Z,-0.67
2023-12-19T05:41:12.796Z,-0.66
2023-12-19T05:43:39.200Z,-0.70
2023-12-19T05:46:05.630Z,-0.67
2023-12-19T05:48:32.106Z,-0.60
2023-12-19T05:50:58.556Z,-0.54
2023-12-19T05:53:25.056Z,-0.51
2023-12-19T05:55:51.510Z,-0.48
2023-12-19T05:58:18.217Z,-0.44
2023-12-19T06:00:44.965Z,-0.36
2023-12-19T06:03:11.632Z,-0.35
2023-12-19T06:05:38.027Z,-0.32
2023-12-19T06:08:04.756Z,-0.27
2023-12-19T06:10:31.151Z,-0.23
2023-12-19T06:12:57.499Z,-0.20
2023-12-19T06:15:24.310Z,-0.13
2023-12-19T06:17:50.841Z,-0.06
2023-12-19T06:20:17.368Z,0.03
2023-12-19T06:22:44.102Z,0.06
2023-12-19T06:25:12.391Z,0.10
2023-12-19T06:27:38.839Z,0.09
2023-12-19T06:30:14.773Z,0.14
2023-12-19T06:32:49.304Z,0.22
2023-12-19T06:35:15.815Z,0.28
2023-12-19T06:37:42.380Z,0.36
2023-12-19T06:40:09.330Z,0.41
2023-12-19T06:42:35.766Z,0.44
2023-12-19T06:45:02.165Z,0.48
2023-12-19T06:47:29.393Z,0.50
2023-12-19T06:49:55.975Z,0.50
2023-12-19T06:52:22.633Z,0.51
2023-12-19T06:54:49.116Z,0.51
2023-12-19T06:57:15.764Z,0.52
2023-12-19T06:59:42.113Z,0.57
2023-12-19T07:02:08.788Z,0.60
2023-12-19T07:04:35.313Z,0.61
2023-12-19T07:07:01.816Z,0.69
2023-12-19T07:09:28.263Z,0.78
2023-12-19T07:11:54.640Z,0.87
2023-12-19T07:14:20.968Z,0.99
2023-12-19T07:16:47.688Z,1.07
2023-12-19T07:19:17.338Z,1.04
2023-12-19T07:21:43.787Z,1.04
2023-12-19T07:24:10.671Z,1.05
2023-12-19T07:26:37.018Z,1.11
2023-12-19T07:29:03.668Z,1.18
2023-12-19T07:31:31.571Z,1.20
2023-12-19T07:34:01.855Z,1.22
2023-12-19T07:36:29.300Z,1.30
2023-12-19T07:38:55.753Z,1.28
2023-12-19T07:41:23.640Z,1.30
2023-12-19T07:43:50.333Z,1.38
2023-12-19T07:46:16.730Z,1.47
2023-12-19T07:48:43.171Z,1.57
2023-12-19T07:51:15.320Z,1.65
2023-12-19T07:53:41.658Z,1.72
2023-12-19T07:56:08.232Z,1.76
2023-12-19T07:58:34.587Z,1.81
2023-12-19T08:01:01.582Z,1.80
2023-12-19T08:03:31.922Z,1.81
2023-12-19T08:05:58.380Z,1.82
2023-12-19T08:08:24.771Z,1.82
2023-12-19T08:10:51.806Z,1.87
2023-12-19T08:13:18.888Z,1.93
2023-12-19T08:15:46.382Z,1.98
2023-12-19T08:18:12.874Z,2.03
2023-12-19T08:20:39.423Z,2.08
2023-12-19T08:23:05.864Z,2.06
2023-12-19T08:25:32.661Z,2.07
2023-12-19T08:27:59.130Z,2.07
2023-12-19T08:30:26.237Z,2.07
2023-12-19T08:32:52.670Z,2.07
2023-12-19T08:35:19.052Z,2.06
2023-12-19T08:37:45.683Z,2.03
2023-12-19T08:40:12.409Z,1.98
2023-12-19T08:42:38.936Z,1.89
2023-12-19T08:45:05.726Z,1.81
2023-12-19T08:47:32.072Z,1.81
2023-12-19T08:49:58.734Z,1.77
2023-12-19T08:52:25.441Z,1.76
2023-12-19T08:54:51.936Z,1.66
2023-12-19T08:57:18.364Z,1.59
2023-12-19T08:59:44.773Z,1.54
2023-12-19T09:02:11.122Z,1.53
2023-12-19T09:04:37.678Z,1.54
2023-12-19T09:07:04.327Z,1.61
2023-12-19T09:09:30.716Z,1.68
2023-12-19T09:11:57.105Z,1.69
2023-12-19T09:14:23.531Z,1.78
2023-12-19T09:16:49.900Z,1.87
2023-12-19T09:19:16.684Z,1.96
2023-12-19T09:21:43.176Z,2.02
2023-12-19T09:24:09.592Z,2.14
2023-12-19T09:26:39.345Z,2.24
2023-12-19T09:29:08.665Z,2.35
2023-12-19T09:31:35.307Z,2.40
2023-12-19T09:34:02.003Z,2.53
2023-12-19T09:36:28.449Z,2.64
2023-12-19T09:38:54.799Z,2.73
2023-12-19T09:41:21.236Z,2.87
2023-12-19T09:43:47.660Z,3.00
2023-12-19T09:46:14.060Z,3.12
2023-12-19T09:48:42.650Z,3.23
2023-12-19T09:51:19.846Z,3.32
2023-12-19T09:53:49.143Z,3.35
2023-12-19T09:56:16.924Z,3.42
2023-12-19T09:58:45.616Z,3.46
2023-12-19T10:01:12.299Z,3.48
2023-12-19T10:03:38.819Z,3.55
2023-12-19T10:06:05.614Z,3.60
2023-12-19T10:08:32.290Z,3.63
2023-12-19T10:10:58.623Z,3.68
2023-12-19T10:13:33.174Z,3.77
2023-12-19T10:16:29.458Z,3.83
2023-12-19T10:18:56.755Z,3.94
2023-12-19T10:21:23.879Z,4.03
2023-12-19T10:23:50.218Z,4.12
2023-12-19T10:26:16.596Z,4.19
2023-12-19T10:28:42.927Z,4.33
2023-12-19T10:31:11.484Z,4.48
2023-12-19T10:33:43.895Z,4.60
2023-12-19T10:36:28.347Z,4.77
2023-12-19T10:38:56.370Z,4.93
2023-12-19T10:41:25.478Z,5.09
2023-12-19T10:43:53.555Z,5.22
2023-12-19T10:46:20.736Z,5.24
2023-12-19T10:48:47.251Z,5.32
2023-12-19T10:51:17.179Z,5.45
2023-12-19T10:53:47.988Z,5.55
2023-12-19T10:56:17.377Z,5.57
2023-12-19T10:58:49.675Z,5.52
2023-12-19T11:01:20.068Z,5.55
2023-12-19T11:03:56.837Z,5.50
2023-12-19T11:06:26.605Z,5.51
2023-12-19T11:08:55.745Z,5.45
2023-12-19T11:11:31.888Z,5.39
2023-12-19T11:14:00.909Z,5.34
2023-12-19T11:16:33.936Z,5.30
2023-12-19T11:19:16.884Z,5.25
2023-12-19T11:21:58.303Z,5.13
2023-12-19T11:24:29.979Z,4.99
2023-12-19T11:27:17.775Z,4.88
2023-12-19T11:29:45.019Z,4.76
2023-12-19T11:32:34.796Z,4.73
2023-12-19T11:35:07.226Z,4.75
2023-12-19T11:37:35.155Z,4.77
2023-12-19T11:40:01.541Z,4.81
2023-12-19T11:42:40.715Z,4.84
2023-12-19T11:45:19.572Z,4.90
2023-12-19T11:47:47.577Z,4.94
2023-12-19T11:50:45.943Z,4.93
2023-12-19T11:53:12.321Z,4.90
2023-12-19T11:55:38.692Z,4.89
2023-12-19T11:58:12.789Z,4.84
2023-12-19T12:00:42.504Z,4.85
2023-12-19T12:03:12.979Z,4.94
2023-12-19T12:05:40.303Z,5.06
2023-12-19T12:08:07.307Z,5.16
2023-12-19T12:10:33.691Z,5.23
2023-12-19T12:13:03.490Z,5.37
2023-12-19T12:15:29.943Z,5.49
2023-12-19T12:18:07.955Z,5.59
2023-12-19T12:20:35.090Z,5.69
2023-12-19T12:23:02.590Z,5.78
2023-12-19T12:25:29.872Z,5.82
2023-12-19T12:28:09.408Z,5.90
2023-12-19T12:30:37.122Z,6.01
2023-12-19T12:33:05.408Z,6.17
2023-12-19T12:35:35.170Z,6.26
2023-12-19T12:38:09.167Z,6.37
2023-12-19T12:40:35.533Z,6.41
2023-12-19T12:43:29.040Z,6.54
2023-12-19T12:46:06.088Z,6.64
2023-12-19T12:48:32.593Z,6.69
2023-12-19T12:50:59.999Z,6.76
2023-12-19T12:53:26.502Z,6.75
2023-12-19T12:56:14.671Z,6.69
2023-12-19T12:58:41.612Z,6.73
2023-12-19T13:01:09.202Z,6.66
2023-12-19T13:03:35.898Z,6.67
2023-12-19T13:06:03.090Z,6.66
2023-12-19T13:08:30.271Z,6.70
2023-12-19T13:11:00.741Z,6.70
2023-12-19T13:13:27.768Z,6.67
2023-12-19T13:15:54.514Z,6.75
2023-12-19T13:18:22.707Z,6.86
2023-12-19T13:20:49.730Z,6.94
2023-12-19T13:23:16.234Z,6.91
2023-12-19T13:25:42.658Z,6.86
2023-12-19T13:28:09.511Z,6.89
2023-12-19T13:30:38.716Z,6.89
2023-12-19T13:33:06.976Z,6.90
2023-12-19T13:35:35.925Z,6.93
2023-12-19T13:38:02.884Z,6.97
2023-12-19T13:40:29.466Z,6.94
2023-12-19T13:42:56.902Z,6.90
2023-12-19T13:45:30.484Z,6.94
2023-12-19T13:47:57.633Z,6.96
2023-12-19T13:50:24.096Z,7.01
2023-12-19T13:52:50.510Z,7.02
2023-12-19T13:55:17.512Z,7.06
2023-12-19T13:57:44.527Z,7.01
2023-12-19T14:00:16.747Z,7.03
2023-12-19T14:02:46.078Z,6.97
2023-12-19T14:05:12.763Z,6.90
2023-12-19T14:07:40.224Z,6.89
2023-12-19T14:10:07.956Z,6.88
2023-12-19T14:12:38.289Z,6.74
2023-12-19T14:15:05.300Z,6.67
2023-12-19T14:17:31.953Z,6.52
2023-12-19T14:19:58.360Z,6.47
2023-12-19T14:22:24.792Z,6.40
2023-12-19T14:24:51.243Z,6.33
2023-12-19T14:27:17.638Z,6.29
2023-12-19T14:29:43.984Z,6.28
2023-12-19T14:32:10.336Z,6.22
2023-12-19T14:34:36.803Z,6.24
2023-12-19T14:37:03.301Z,6.25
2023-12-19T14:39:29.810Z,6.24
2023-12-19T14:41:56.294Z,6.25
2023-12-19T14:44:22.625Z,6.27
2023-12-19T14:46:49.002Z,6.27
2023-12-19T14:49:15.920Z,6.23
2023-12-19T14:51:42.582Z,6.23
2023-12-19T14:54:08.955Z,6.23
2023-12-19T14:56:35.297Z,6.21
2023-12-19T14:59:01.684Z,6.20
2023-12-19T15:01:28.114Z,6.21
2023-12-19T15:03:54.527Z,6.02
2023-12-19T15:06:21.730Z,5.96
2023-12-19T15:08:48.312Z,5.95
2023-12-19T15:11:14.912Z,5.91
2023-12-19T15:13:41.676Z,5.85
2023-12-19T15:16:08.095Z,5.83
2023-12-19T15:18:39.291Z,5.83
2023-12-19T15:21:07.158Z,5.80
2023-12-19T15:23:34.416Z,5.78
2023-12-19T15:26:00.958Z,5.77
2023-12-19T15:28:27.367Z,5.72
2023-12-19T15:30:53.783Z,5.66
2023-12-19T15:33:20.246Z,5.62
2023-12-19T15:35:46.701Z,5.65
2023-12-19T15:38:13.069Z,5.66
2023-12-19T15:40:42.213Z,5.72
2023-12-19T15:43:08.721Z,5.80
2023-12-19T15:45:35.167Z,5.89
2023-12-19T15:48:01.657Z,5.88
2023-12-19T15:50:28.012Z,5.87
2023-12-19T15:52:54.344Z,5.83
2023-12-19T15:55:20.740Z,5.83
2023-12-19T15:57:47.137Z,5.80
2023-12-19T16:00:14.119Z,5.77
2023-12-19T16:02:46.048Z,5.76
2023-12-19T16:05:15.386Z,5.75
2023-12-19T16:07:41.767Z,5.66
2023-12-19T16:10:08.491Z,5.62
2023-12-19T16:12:35.133Z,5.57
2023-12-19T16:15:01.538Z,5.50
2023-12-19T16:17:27.927Z,5.48
2023-12-19T16:19:54.375Z,5.46
2023-12-19T16:22:21.690Z,5.44
2023-12-19T16:24:48.117Z,5.40
2023-12-19T16:27:14.494Z,5.30
2023-12-19T16:29:40.841Z,5.26
2023-12-19T16:32:07.358Z,5.22
2023-12-19T16:34:34.129Z,5.16
2023-12-19T16:37:00.703Z,5.15
2023-12-19T16:39:27.124Z,5.14
2023-12-19T16:41:53.459Z,5.15
2023-12-19T16:44:19.782Z,5.17
2023-12-19T16:46:47.192Z,5.15
2023-12-19T16:49:13.821Z,5.14
2023-12-19T16:51:40.636Z,5.16
2023-12-19T16:54:07.196Z,5.15
2023-12-19T16:56:34.800Z,5.13
2023-12-19T16:59:02.096Z,5.11
2023-12-19T17:01:28.493Z,5.12
2023-12-19T17:03:55.474Z,5.11
2023-12-19T17:06:21.887Z,5.11
2023-12-19T17:08:48.213Z,5.12
2023-12-19T17:11:14.623Z,5.13
2023-12-19T17:13:40.951Z,5.16
2023-12-19T17:16:07.409Z,5.14
2023-12-19T17:18:34.056Z,5.10
2023-12-19T17:21:00.672Z,5.07
2023-12-19T17:23:30.864Z,5.04
2023-12-19T17:26:03.144Z,5.02
2023-12-19T17:28:29.585Z,5.00
2023-12-19T17:30:55.984Z,4.92
2023-12-19T17:33:22.350Z,4.87
2023-12-19T17:35:48.750Z,4.84
2023-12-19T17:38:15.109Z,4.84
2023-12-19T17:40:41.494Z,4.86
2023-12-19T17:43:07.938Z,4.84
2023-12-19T17:45:34.274Z,4.82
2023-12-19T17:48:00.699Z,4.78
2023-12-19T17:50:27.186Z,4.78
2023-12-19T17:52:53.620Z,4.73
2023-12-19T17:55:19.998Z,4.72
2023-12-19T17:57:46.408Z,4.68
2023-12-19T18:00:13.136Z,4.69
2023-12-19T18:02:39.773Z,4.64
2023-12-19T18:05:06.408Z,4.63
2023-12-19T18:07:32.937Z,4.64
2023-12-19T18:09:59.409Z,4.62
2023-12-19T18:12:25.793Z,4.56
2023-12-19T18:14:52.346Z,4.58
2023-12-19T18:17:18.748Z,4.56
2023-12-19T18:19:45.366Z,4.53
2023-12-19T18:22:11.821Z,4.54
2023-12-19T18:24:38.290Z,4.56
2023-12-19T18:27:05.240Z,4.55
2023-12-19T18:29:32.051Z,4.58
2023-12-19T18:31:58.461Z,4.64
2023-12-19T18:34:25.009Z,4.68
2023-12-19T18:36:51.504Z,4.70
2023-12-19T18:39:18.156Z,4.70
2023-12-19T18:41:47.564Z,4.73
2023-12-19T18:44:13.900Z,4.74
2023-12-19T18:46:41.352Z,4.78
2023-12-19T18:49:09.456Z,4.77
2023-12-19T18:51:36.055Z,4.80
2023-12-19T18:54:02.498Z,4.81
2023-12-19T18:56:28.953Z,4.79
2023-12-19T18:58:55.292Z,4.79
2023-12-19T19:01:23.682Z,4.77
2023-12-19T19:03:50.321Z,4.75
2023-12-19T19:06:16.732Z,4.76
2023-12-19T19:08:43.354Z,4.78
2023-12-19T19:11:09.755Z,4.80
2023-12-19T19:13:36.318Z,4.78
2023-12-19T19:16:02.859Z,4.73
2023-12-19T19:18:31.064Z,4.65
2023-12-19T19:20:57.710Z,4.65
2023-12-19T19:23:24.111Z,4.63
2023-12-19T19:25:50.582Z,4.62
2023-12-19T19:28:17.129Z,4.66
2023-12-19T19:30:47.550Z,4.71
2023-12-19T19:33:14.425Z,4.75
2023-12-19T19:35:40.938Z,4.78
2023-12-19T19:38:07.569Z,4.77
2023-12-19T19:40:41.398Z,4.79
2023-12-19T19:43:11.235Z,4.78
2023-12-19T19:45:38.286Z,4.77
2023-12-19T19:48:05.364Z,4.74
2023-12-19T19:50:31.821Z,4.70
2023-12-19T19:52:59.321Z,4.70
2023-12-19T19:55:26.207Z,4.76
2023-12-19T19:57:52.983Z,4.77
2023-12-19T20:00:19.675Z,4.78
2023-12-19T20:02:46.198Z,4.83
2023-12-19T20:05:13.028Z,4.87
2023-12-19T20:07:39.639Z,4.88
2023-12-19T20:10:06.836Z,4.90
2023-12-19T20:12:33.592Z,4.92
2023-12-19T20:17:51.229Z,4.99
2023-12-19T20:20:17.736Z,5.05
2023-12-19T20:22:44.359Z,5.07
2023-12-19T20:25:12.129Z,5.08
2023-12-19T20:30:28.607Z,5.11
2023-12-19T20:32:55.036Z,5.16
2023-12-19T20:35:21.451Z,5.18
2023-12-19T20:37:51.434Z,5.22
2023-12-19T20:40:18.037Z,5.22
2023-12-19T20:45:34.839Z,5.27
2023-12-19T20:50:52.139Z,5.35
2023-12-19T20:53:18.584Z,5.42
2023-12-19T20:55:45.209Z,5.47
2023-12-19T20:58:11.674Z,5.53
2023-12-19T21:00:38.152Z,5.59
2023-12-19T21:03:04.633Z,5.59
2023-12-19T21:05:31.027Z,5.67
2023-12-19T21:07:57.447Z,5.71
2023-12-19T21:10:23.850Z,5.76
2023-12-19T21:12:50.522Z,5.80
2023-12-19T21:15:17.021Z,5.79
2023-12-19T21:17:43.550Z,5.78
2023-12-19T21:20:10.663Z,5.76
2023-12-19T21:22:37.005Z,5.78
2023-12-19T21:25:03.911Z,5.79
2023-12-19T21:27:30.458Z,5.83
2023-12-19T21:29:56.887Z,5.89
2023-12-19T21:32:23.218Z,5.88
2023-12-19T21:34:49.784Z,5.92
2023-12-19T21:37:16.360Z,5.95
2023-12-19T21:39:42.871Z,5.95
2023-12-19T21:42:09.330Z,5.99
2023-12-19T21:44:35.687Z,6.00
2023-12-19T21:47:03.200Z,6.01
2023-12-19T21:49:29.722Z,6.04
2023-12-19T21:51:56.158Z,6.06
2023-12-19T21:54:22.615Z,6.10
2023-12-19T21:56:49.063Z,6.13
2023-12-19T21:59:15.469Z,6.14
2023-12-19T22:01:45.258Z,6.17
2023-12-19T22:04:11.956Z,6.20
2023-12-19T22:06:38.530Z,6.18
2023-12-19T22:09:05.085Z,6.19
2023-12-19T22:11:36.638Z,6.18
2023-12-19T22:14:05.577Z,6.17
2023-12-19T22:16:32.903Z,6.18
2023-12-19T22:19:00.313Z,6.18
2023-12-19T22:21:26.950Z,6.13
2023-12-19T22:23:53.947Z,6.10
2023-12-19T22:26:21.014Z,6.08
2023-12-19T22:28:48.966Z,6.09
2023-12-19T22:31:16.276Z,6.02
2023-12-19T22:33:42.929Z,6.04
2023-12-19T22:36:09.385Z,5.99
2023-12-19T22:38:36.916Z,6.01
2023-12-19T22:41:03.444Z,6.03
2023-12-19T22:43:29.781Z,5.99
2023-12-19T22:45:56.313Z,5.98
2023-12-19T22:48:22.914Z,5.99
2023-12-19T22:50:50.335Z,6.03
2023-12-19T22:53:16.679Z,6.05
2023-12-19T22:55:43.001Z,6.06
2023-12-19T22:58:09.877Z,6.06
2023-12-19T23:00:36.501Z,6.03
2023-12-19T23:03:03.240Z,6.06
2023-12-19T23:05:29.568Z,6.10
2023-12-19T23:07:56.015Z,6.10
2023-12-19T23:10:22.613Z,6.08
2023-12-19T23:12:49.778Z,6.07
2023-12-19T23:15:16.188Z,6.04
2023-12-19T23:17:42.607Z,6.00
2023-12-19T23:20:09.850Z,5.97
2023-12-19T23:22:36.374Z,5.96
2023-12-19T23:25:02.777Z,5.97
2023-12-19T23:27:29.146Z,5.95
2023-12-19T23:29:55.528Z,6.01
2023-12-19T23:32:21.919Z,6.05
2023-12-19T23:34:48.318Z,6.05
2023-12-19T23:37:14.936Z,6.08
2023-12-19T23:39:41.429Z,6.04
2023-12-19T23:42:07.854Z,6.07
2023-12-19T23:44:34.194Z,6.14
2023-12-19T23:47:00.521Z,6.15
2023-12-19T23:49:26.981Z,6.12
2023-12-19T23:51:53.467Z,6.13
2023-12-19T23:54:19.867Z,6.15
2023-12-19T23:56:46.288Z,6.18
2023-12-19T23:59:12.719Z,6.17
